sensor_id;sensor_type;location;lat;lon;timestamp;pressure;altitude;pressure_sealevel;temperature;humidity
37832;BME280;23671;38.090;-122.570;2023-01-29T00:01:35;101354.28;;;12.00;72.24
37832;BME280;23671;38.090;-122.570;2023-01-29T00:04:03;101348.03;;;12.01;72.33
37832;BME280;23671;38.090;-122.570;2023-01-29T00:06:30;101354.28;;;12.00;72.15
37832;BME280;23671;38.090;-122.570;2023-01-29T00:08:57;101356.00;;;12.01;72.22
37832;BME280;23671;38.090;-122.570;2023-01-29T00:11:24;101353.34;;;12.01;72.21
37832;BME280;23671;38.090;-122.570;2023-01-29T00:13:52;101350.69;;;12.01;72.44
37832;BME280;23671;38.090;-122.570;2023-01-29T00:16:19;101345.41;;;12.01;72.84
37832;BME280;23671;38.090;-122.570;2023-01-29T00:18:46;101341.91;;;12.00;71.84
37832;BME280;23671;38.090;-122.570;2023-01-29T00:21:32;101335.88;;;11.98;72.41
37832;BME280;23671;38.090;-122.570;2023-01-29T00:24:00;101334.09;;;11.99;72.44
37832;BME280;23671;38.090;-122.570;2023-01-29T00:26:27;101331.44;;;11.99;71.63
37832;BME280;23671;38.090;-122.570;2023-01-29T00:28:55;101326.16;;;11.99;72.12
37832;BME280;23671;38.090;-122.570;2023-01-29T00:31:52;101325.28;;;11.98;71.62
37832;BME280;23671;38.090;-122.570;2023-01-29T00:34:22;101333.34;;;11.97;72.04
37832;BME280;23671;38.090;-122.570;2023-01-29T00:36:49;101329.00;;;11.96;72.07
37832;BME280;23671;38.090;-122.570;2023-01-29T00:39:16;101317.59;;;11.95;71.96
37832;BME280;23671;38.090;-122.570;2023-01-29T00:41:43;101306.28;;;11.93;71.53
37832;BME280;23671;38.090;-122.570;2023-01-29T00:44:28;101311.69;;;11.92;71.88
37832;BME280;23671;38.090;-122.570;2023-01-29T00:47:13;101329.50;;;11.90;71.61
37832;BME280;23671;38.090;-122.570;2023-01-29T00:50:00;101337.63;;;11.86;71.31
37832;BME280;23671;38.090;-122.570;2023-01-29T00:52:27;101351.19;;;11.82;71.85
37832;BME280;23671;38.090;-122.570;2023-01-29T00:54:56;101361.09;;;11.80;71.72
37832;BME280;23671;38.090;-122.570;2023-01-29T00:57:26;101378.00;;;11.77;71.39
37832;BME280;23671;38.090;-122.570;2023-01-29T00:59:53;101377.28;;;11.75;72.20
37832;BME280;23671;38.090;-122.570;2023-01-29T01:02:20;101368.50;;;11.75;71.81
37832;BME280;23671;38.090;-122.570;2023-01-29T01:05:08;101373.91;;;11.73;71.72
37832;BME280;23671;38.090;-122.570;2023-01-29T01:07:44;101373.91;;;11.73;72.12
37832;BME280;23671;38.090;-122.570;2023-01-29T01:10:18;101371.38;;;11.72;71.77
37832;BME280;23671;38.090;-122.570;2023-01-29T01:12:57;101352.84;;;11.72;71.71
37832;BME280;23671;38.090;-122.570;2023-01-29T01:15:32;101347.66;;;11.70;71.96
37832;BME280;23671;38.090;-122.570;2023-01-29T01:18:02;101352.94;;;11.70;71.08
37832;BME280;23671;38.090;-122.570;2023-01-29T01:20:31;101354.03;;;11.68;71.53
37832;BME280;23671;38.090;-122.570;2023-01-29T01:23:01;101356.69;;;11.68;71.53
37832;BME280;23671;38.090;-122.570;2023-01-29T01:25:48;101365.69;;;11.65;71.26
37832;BME280;23671;38.090;-122.570;2023-01-29T01:28:15;101362.50;;;11.60;71.50
37832;BME280;23671;38.090;-122.570;2023-01-29T01:30:42;101352.88;;;11.59;71.48
37832;BME280;23671;38.090;-122.570;2023-01-29T01:33:10;101353.84;;;11.58;71.82
37832;BME280;23671;38.090;-122.570;2023-01-29T01:35:38;101339.88;;;11.56;71.36
37832;BME280;23671;38.090;-122.570;2023-01-29T01:38:06;101337.34;;;11.55;71.35
37832;BME280;23671;38.090;-122.570;2023-01-29T01:40:33;101321.56;;;11.53;71.87
37832;BME280;23671;38.090;-122.570;2023-01-29T01:43:01;101330.38;;;11.54;71.76
37832;BME280;23671;38.090;-122.570;2023-01-29T01:45:30;101328.69;;;11.53;71.35
37832;BME280;23671;38.090;-122.570;2023-01-29T01:53:13;101316.72;;;11.47;71.33
37832;BME280;23671;38.090;-122.570;2023-01-29T01:55:47;101314.31;;;11.44;71.26
37832;BME280;23671;38.090;-122.570;2023-01-29T01:58:25;101318.88;;;11.42;71.10
37832;BME280;23671;38.090;-122.570;2023-01-29T02:00:54;101319.84;;;11.41;70.97
37832;BME280;23671;38.090;-122.570;2023-01-29T02:03:22;101318.38;;;11.37;70.88
37832;BME280;23671;38.090;-122.570;2023-01-29T02:06:08;101315.00;;;11.35;70.67
37832;BME280;23671;38.090;-122.570;2023-01-29T02:08:55;101306.47;;;11.32;70.78
37832;BME280;23671;38.090;-122.570;2023-01-29T02:11:42;101303.16;;;11.28;70.65
37832;BME280;23671;38.090;-122.570;2023-01-29T02:14:09;101308.69;;;11.25;70.72
37832;BME280;23671;38.090;-122.570;2023-01-29T02:16:37;101306.28;;;11.22;70.74
37832;BME280;23671;38.090;-122.570;2023-01-29T02:19:35;101308.28;;;11.19;70.08
37832;BME280;23671;38.090;-122.570;2023-01-29T02:24:58;101286.88;;;11.11;70.03
37832;BME280;23671;38.090;-122.570;2023-01-29T02:30:52;101314.06;;;11.00;70.21
37832;BME280;23671;38.090;-122.570;2023-01-29T02:33:38;101315.22;;;10.96;70.35
37832;BME280;23671;38.090;-122.570;2023-01-29T02:36:18;101317.34;;;10.91;69.98
37832;BME280;23671;38.090;-122.570;2023-01-29T02:39:05;101324.75;;;10.86;70.12
37832;BME280;23671;38.090;-122.570;2023-01-29T02:44:47;101336.94;;;10.76;69.93
37832;BME280;23671;38.090;-122.570;2023-01-29T02:47:19;101339.66;;;10.74;70.10
37832;BME280;23671;38.090;-122.570;2023-01-29T02:49:51;101332.91;;;10.70;69.86
37832;BME280;23671;38.090;-122.570;2023-01-29T02:55:55;101322.97;;;10.61;70.21
37832;BME280;23671;38.090;-122.570;2023-01-29T02:58:56;101324.16;;;10.57;70.10
37832;BME280;23671;38.090;-122.570;2023-01-29T03:01:35;101326.91;;;10.56;69.92
37832;BME280;23671;38.090;-122.570;2023-01-29T03:04:10;101331.66;;;10.51;70.11
37832;BME280;23671;38.090;-122.570;2023-01-29T03:06:53;101328.28;;;10.49;70.01
37832;BME280;23671;38.090;-122.570;2023-01-29T03:09:40;101319.81;;;10.44;69.97
37832;BME280;23671;38.090;-122.570;2023-01-29T03:12:25;101322.69;;;10.41;70.06
37832;BME280;23671;38.090;-122.570;2023-01-29T03:15:10;101321.09;;;10.38;69.87
37832;BME280;23671;38.090;-122.570;2023-01-29T03:18:01;101319.50;;;10.36;69.83
37832;BME280;23671;38.090;-122.570;2023-01-29T03:20:39;101325.94;;;10.32;69.97
37832;BME280;23671;38.090;-122.570;2023-01-29T03:23:18;101316.44;;;10.29;69.61
37832;BME280;23671;38.090;-122.570;2023-01-29T03:26:12;101311.47;;;10.25;70.20
37832;BME280;23671;38.090;-122.570;2023-01-29T03:29:08;101317.91;;;10.21;70.26
37832;BME280;23671;38.090;-122.570;2023-01-29T03:31:57;101321.69;;;10.17;69.95
37832;BME280;23671;38.090;-122.570;2023-01-29T03:34:48;101320.22;;;10.13;69.70
37832;BME280;23671;38.090;-122.570;2023-01-29T03:37:31;101316.91;;;10.09;70.09
37832;BME280;23671;38.090;-122.570;2023-01-29T03:40:10;101312.69;;;10.06;70.00
37832;BME280;23671;38.090;-122.570;2023-01-29T04:02:12;101305.38;;;9.85;69.59
37832;BME280;23671;38.090;-122.570;2023-01-29T04:07:50;101300.69;;;9.76;69.74
37832;BME280;23671;38.090;-122.570;2023-01-29T04:10:25;101290.38;;;9.73;69.73
37832;BME280;23671;38.090;-122.570;2023-01-29T04:13:08;101295.84;;;9.70;69.87
37832;BME280;23671;38.090;-122.570;2023-01-29T04:15:51;101297.09;;;9.64;69.96
37832;BME280;23671;38.090;-122.570;2023-01-29T04:24:35;101290.53;;;9.57;69.99
37832;BME280;23671;38.090;-122.570;2023-01-29T04:39:28;101295.31;;;9.38;69.48
37832;BME280;23671;38.090;-122.570;2023-01-29T04:42:12;101298.25;;;9.34;69.50
37832;BME280;23671;38.090;-122.570;2023-01-29T04:44:42;101292.31;;;9.30;69.72
37832;BME280;23671;38.090;-122.570;2023-01-29T04:50:07;101302.44;;;9.24;69.64
37832;BME280;23671;38.090;-122.570;2023-01-29T04:53:02;101295.66;;;9.20;69.75
37832;BME280;23671;38.090;-122.570;2023-01-29T04:58:46;101292.69;;;9.11;69.58
37832;BME280;23671;38.090;-122.570;2023-01-29T05:01:17;101285.69;;;9.10;70.12
37832;BME280;23671;38.090;-122.570;2023-01-29T05:03:48;101281.50;;;9.08;70.17
37832;BME280;23671;38.090;-122.570;2023-01-29T05:06:16;101281.66;;;9.05;69.52
37832;BME280;23671;38.090;-122.570;2023-01-29T05:08:44;101292.53;;;9.00;69.51
37832;BME280;23671;38.090;-122.570;2023-01-29T05:11:13;101288.19;;;8.99;70.22
37832;BME280;23671;38.090;-122.570;2023-01-29T05:13:42;101293.66;;;8.96;69.54
37832;BME280;23671;38.090;-122.570;2023-01-29T05:16:18;101278.69;;;8.97;70.22
37832;BME280;23671;38.090;-122.570;2023-01-29T05:18:50;101284.25;;;8.92;69.85
37832;BME280;23671;38.090;-122.570;2023-01-29T05:21:38;101287.72;;;8.93;69.64
37832;BME280;23671;38.090;-122.570;2023-01-29T05:24:21;101277.38;;;8.90;69.99
37832;BME280;23671;38.090;-122.570;2023-01-29T05:26:49;101278.41;;;8.87;69.46
37832;BME280;23671;38.090;-122.570;2023-01-29T05:29:46;101277.97;;;8.81;69.46
37832;BME280;23671;38.090;-122.570;2023-01-29T05:32:38;101272.88;;;8.78;70.30
37832;BME280;23671;38.090;-122.570;2023-01-29T05:35:11;101274.75;;;8.76;69.76
37832;BME280;23671;38.090;-122.570;2023-01-29T05:37:48;101262.72;;;8.72;69.92
37832;BME280;23671;38.090;-122.570;2023-01-29T05:40:22;101273.38;;;8.70;69.61
37832;BME280;23671;38.090;-122.570;2023-01-29T05:42:49;101279.88;;;8.65;69.77
37832;BME280;23671;38.090;-122.570;2023-01-29T05:45:17;101283.34;;;8.65;69.64
37832;BME280;23671;38.090;-122.570;2023-01-29T05:47:50;101287.09;;;8.61;69.71
37832;BME280;23671;38.090;-122.570;2023-01-29T05:50:29;101287.09;;;8.61;69.55
37832;BME280;23671;38.090;-122.570;2023-01-29T05:52:58;101278.63;;;8.56;69.63
37832;BME280;23671;38.090;-122.570;2023-01-29T05:55:26;101274.44;;;8.54;70.37
37832;BME280;23671;38.090;-122.570;2023-01-29T05:57:55;101262.28;;;8.51;69.89
37832;BME280;23671;38.090;-122.570;2023-01-29T06:00:31;101259.00;;;8.48;69.82
37832;BME280;23671;38.090;-122.570;2023-01-29T06:02:58;101255.41;;;8.49;70.02
37832;BME280;23671;38.090;-122.570;2023-01-29T06:05:26;101257.41;;;8.45;70.06
37832;BME280;23671;38.090;-122.570;2023-01-29T06:07:53;101266.31;;;8.43;70.43
37832;BME280;23671;38.090;-122.570;2023-01-29T06:10:20;101264.66;;;8.42;69.97
37832;BME280;23671;38.090;-122.570;2023-01-29T06:12:47;101270.88;;;8.41;70.44
37832;BME280;23671;38.090;-122.570;2023-01-29T06:15:14;101270.88;;;8.41;70.03
37832;BME280;23671;38.090;-122.570;2023-01-29T06:17:42;101262.38;;;8.36;70.21
37832;BME280;23671;38.090;-122.570;2023-01-29T06:20:09;101252.06;;;8.33;70.31
37832;BME280;23671;38.090;-122.570;2023-01-29T06:22:37;101255.53;;;8.33;70.60
37832;BME280;23671;38.090;-122.570;2023-01-29T06:25:04;101256.56;;;8.31;69.93
37832;BME280;23671;38.090;-122.570;2023-01-29T06:27:31;101256.75;;;8.27;70.17
37832;BME280;23671;38.090;-122.570;2023-01-29T06:29:58;101257.59;;;8.28;70.22
37832;BME280;23671;38.090;-122.570;2023-01-29T06:32:26;101250.72;;;8.25;69.86
37832;BME280;23671;38.090;-122.570;2023-01-29T06:34:53;101245.53;;;8.24;70.43
37832;BME280;23671;38.090;-122.570;2023-01-29T06:37:20;101255.31;;;8.22;70.23
37832;BME280;23671;38.090;-122.570;2023-01-29T06:39:47;101259.72;;;8.21;70.01
37832;BME280;23671;38.090;-122.570;2023-01-29T06:42:17;101259.91;;;8.18;70.26
37832;BME280;23671;38.090;-122.570;2023-01-29T06:44:56;101255.59;;;8.17;70.59
37832;BME280;23671;38.090;-122.570;2023-01-29T06:47:23;101260.88;;;8.17;70.09
37832;BME280;23671;38.090;-122.570;2023-01-29T06:49:52;101258.22;;;8.17;70.40
37832;BME280;23671;38.090;-122.570;2023-01-29T06:52:19;101255.59;;;8.17;70.28
37832;BME280;23671;38.090;-122.570;2023-01-29T06:54:46;101253.69;;;8.19;69.46
37832;BME280;23671;38.090;-122.570;2023-01-29T06:57:13;101252.22;;;8.15;70.11
37832;BME280;23671;38.090;-122.570;2023-01-29T06:59:40;101247.03;;;8.14;69.92
37832;BME280;23671;38.090;-122.570;2023-01-29T07:02:07;101246.38;;;8.10;69.84
37832;BME280;23671;38.090;-122.570;2023-01-29T07:04:35;101252.59;;;8.09;70.34
37832;BME280;23671;38.090;-122.570;2023-01-29T07:07:04;101250.88;;;8.08;69.70
37832;BME280;23671;38.090;-122.570;2023-01-29T07:09:31;101250.13;;;8.06;70.43
37832;BME280;23671;38.090;-122.570;2023-01-29T07:11:58;101244.97;;;8.05;70.12
37832;BME280;23671;38.090;-122.570;2023-01-29T07:14:25;101243.34;;;8.02;69.66
37832;BME280;23671;38.090;-122.570;2023-01-29T07:16:52;101235.47;;;8.02;70.50
37832;BME280;23671;38.090;-122.570;2023-01-29T07:19:19;101229.53;;;7.99;70.21
37832;BME280;23671;38.090;-122.570;2023-01-29T07:21:46;101226.16;;;7.97;69.83
37832;BME280;23671;38.090;-122.570;2023-01-29T07:24:13;101223.53;;;7.97;70.36
37832;BME280;23671;38.090;-122.570;2023-01-29T07:26:40;101226.06;;;7.98;69.58
37832;BME280;23671;38.090;-122.570;2023-01-29T07:29:07;101223.72;;;7.94;70.33
37832;BME280;23671;38.090;-122.570;2023-01-29T07:31:34;101218.38;;;7.95;69.80
37832;BME280;23671;38.090;-122.570;2023-01-29T07:34:01;101222.13;;;7.91;69.84
37832;BME280;23671;38.090;-122.570;2023-01-29T07:36:29;101214.34;;;7.90;70.31
37832;BME280;23671;38.090;-122.570;2023-01-29T07:38:56;101214.50;;;7.87;70.50
37832;BME280;23671;38.090;-122.570;2023-01-29T07:41:23;101211.97;;;7.85;69.77
37832;BME280;23671;38.090;-122.570;2023-01-29T07:43:50;101209.44;;;7.84;69.84
37832;BME280;23671;38.090;-122.570;2023-01-29T07:46:17;101205.97;;;7.83;70.24
37832;BME280;23671;38.090;-122.570;2023-01-29T07:48:44;101206.91;;;7.82;69.61
37832;BME280;23671;38.090;-122.570;2023-01-29T07:51:11;101204.38;;;7.81;69.91
37832;BME280;23671;38.090;-122.570;2023-01-29T07:53:38;101197.31;;;7.81;69.65
37832;BME280;23671;38.090;-122.570;2023-01-29T07:56:06;101201.00;;;7.79;70.22
37832;BME280;23671;38.090;-122.570;2023-01-29T07:58:33;101202.00;;;7.76;70.33
37832;BME280;23671;38.090;-122.570;2023-01-29T08:01:03;101190.66;;;7.76;70.21
37832;BME280;23671;38.090;-122.570;2023-01-29T08:03:30;101188.88;;;7.76;70.19
37832;BME280;23671;38.090;-122.570;2023-01-29T08:05:57;101184.75;;;7.72;69.79
37832;BME280;23671;38.090;-122.570;2023-01-29T08:08:24;101192.81;;;7.69;69.85
37832;BME280;23671;38.090;-122.570;2023-01-29T08:10:51;101189.13;;;7.72;69.79
37832;BME280;23671;38.090;-122.570;2023-01-29T08:13:18;101177.81;;;7.71;70.15
37832;BME280;23671;38.090;-122.570;2023-01-29T08:15:45;101168.31;;;7.69;70.39
37832;BME280;23671;38.090;-122.570;2023-01-29T08:18:13;101168.47;;;7.66;70.42
37832;BME280;23671;38.090;-122.570;2023-01-29T08:20:40;101168.47;;;7.66;70.33
37832;BME280;23671;38.090;-122.570;2023-01-29T08:23:12;101167.56;;;7.67;70.40
37832;BME280;23671;38.090;-122.570;2023-01-29T08:25:40;101160.53;;;7.67;70.05
37832;BME280;23671;38.090;-122.570;2023-01-29T08:28:07;101165.78;;;7.67;69.75
37832;BME280;23671;38.090;-122.570;2023-01-29T08:30:35;101177.13;;;7.68;69.91
37832;BME280;23671;38.090;-122.570;2023-01-29T08:33:03;101172.81;;;7.67;69.82
37832;BME280;23671;38.090;-122.570;2023-01-29T08:35:30;101172.91;;;7.65;70.10
37832;BME280;23671;38.090;-122.570;2023-01-29T08:38:02;101173.84;;;7.64;69.71
37832;BME280;23671;38.090;-122.570;2023-01-29T08:40:31;101160.88;;;7.61;70.19
37832;BME280;23671;38.090;-122.570;2023-01-29T08:43:00;101163.41;;;7.63;69.52
37832;BME280;23671;38.090;-122.570;2023-01-29T08:45:27;101153.94;;;7.60;69.70
37832;BME280;23671;38.090;-122.570;2023-01-29T08:47:55;101158.44;;;7.58;70.25
37832;BME280;23671;38.090;-122.570;2023-01-29T08:50:22;101149.88;;;7.55;69.85
37832;BME280;23671;38.090;-122.570;2023-01-29T08:52:49;101151.66;;;7.54;69.81
37832;BME280;23671;38.090;-122.570;2023-01-29T08:55:16;101149.03;;;7.54;69.71
37832;BME280;23671;38.090;-122.570;2023-01-29T08:57:43;101147.53;;;7.50;69.90
37832;BME280;23671;38.090;-122.570;2023-01-29T09:00:11;101142.47;;;7.47;69.87
37832;BME280;23671;38.090;-122.570;2023-01-29T09:02:38;101140.59;;;7.49;70.20
37832;BME280;23671;38.090;-122.570;2023-01-29T09:05:05;101147.72;;;7.47;69.57
37832;BME280;23671;38.090;-122.570;2023-01-29T09:07:33;101141.53;;;7.48;69.92
37832;BME280;23671;38.090;-122.570;2023-01-29T09:10:00;101138.16;;;7.46;70.36
37832;BME280;23671;38.090;-122.570;2023-01-29T09:12:27;101130.44;;;7.43;69.97
37832;BME280;23671;38.090;-122.570;2023-01-29T09:14:54;101123.50;;;7.42;70.03
37832;BME280;23671;38.090;-122.570;2023-01-29T09:17:21;101123.50;;;7.42;69.84
37832;BME280;23671;38.090;-122.570;2023-01-29T09:19:48;101112.53;;;7.35;70.23
37832;BME280;23671;38.090;-122.570;2023-01-29T09:22:15;101110.84;;;7.34;70.57
37832;BME280;23671;38.090;-122.570;2023-01-29T09:24:42;101106.59;;;7.32;70.27
37832;BME280;23671;38.090;-122.570;2023-01-29T09:27:09;101095.84;;;7.37;69.82
37832;BME280;23671;38.090;-122.570;2023-01-29T09:29:36;101095.75;;;7.38;70.25
37832;BME280;23671;38.090;-122.570;2023-01-29T09:32:04;101096.75;;;7.35;70.03
37832;BME280;23671;38.090;-122.570;2023-01-29T09:34:31;101096.97;;;7.32;69.88
37832;BME280;23671;38.090;-122.570;2023-01-29T09:36:58;101099.28;;;7.37;70.35
37832;BME280;23671;38.090;-122.570;2023-01-29T09:39:25;101087.00;;;7.38;69.79
37832;BME280;23671;38.090;-122.570;2023-01-29T09:47:35;101104.53;;;7.37;69.87
37832;BME280;23671;38.090;-122.570;2023-01-29T09:50:12;101111.50;;;7.38;69.61
37832;BME280;23671;38.090;-122.570;2023-01-29T09:52:47;101105.41;;;7.38;70.24
37832;BME280;23671;38.090;-122.570;2023-01-29T09:55:40;101094.03;;;7.37;69.44
37832;BME280;23671;38.090;-122.570;2023-01-29T10:09:46;101088.03;;;7.35;69.42
37832;BME280;23671;38.090;-122.570;2023-01-29T10:15:32;101082.38;;;7.27;70.26
37832;BME280;23671;38.090;-122.570;2023-01-29T10:18:27;101077.13;;;7.27;69.99
37832;BME280;23671;38.090;-122.570;2023-01-29T10:24:00;101077.13;;;7.27;70.35
37832;BME280;23671;38.090;-122.570;2023-01-29T10:26:31;101070.97;;;7.28;70.02
37832;BME280;23671;38.090;-122.570;2023-01-29T10:29:04;101062.41;;;7.24;70.06
37832;BME280;23671;38.090;-122.570;2023-01-29T10:31:36;101063.28;;;7.25;70.07
37832;BME280;23671;38.090;-122.570;2023-01-29T10:34:24;101061.56;;;7.24;70.14
37832;BME280;23671;38.090;-122.570;2023-01-29T10:36:54;101070.19;;;7.26;70.29
37832;BME280;23671;38.090;-122.570;2023-01-29T10:39:24;101072.16;;;7.22;69.83
37832;BME280;23671;38.090;-122.570;2023-01-29T10:45:13;101068.13;;;7.17;70.29
37832;BME280;23671;38.090;-122.570;2023-01-29T11:02:17;101040.63;;;7.08;70.00
37832;BME280;23671;38.090;-122.570;2023-01-29T11:05:07;101037.91;;;7.10;70.26
37832;BME280;23671;38.090;-122.570;2023-01-29T11:07:41;101034.53;;;7.08;70.21
37832;BME280;23671;38.090;-122.570;2023-01-29T11:10:13;101031.16;;;7.06;70.03
37832;BME280;23671;38.090;-122.570;2023-01-29T11:12:46;101035.56;;;7.05;70.23
37832;BME280;23671;38.090;-122.570;2023-01-29T11:15:23;101027.75;;;7.04;70.20
37832;BME280;23671;38.090;-122.570;2023-01-29T11:18:12;101023.47;;;7.03;70.50
37832;BME280;23671;38.090;-122.570;2023-01-29T11:20:42;101016.44;;;7.03;70.29
37832;BME280;23671;38.090;-122.570;2023-01-29T11:23:48;101026.19;;;7.01;70.21
37832;BME280;23671;38.090;-122.570;2023-01-29T11:26:24;101026.28;;;7.00;70.09
37832;BME280;23671;38.090;-122.570;2023-01-29T11:29:03;101022.72;;;7.01;69.90
37832;BME280;23671;38.090;-122.570;2023-01-29T11:31:39;101027.03;;;7.02;69.85
37832;BME280;23671;38.090;-122.570;2023-01-29T11:34:29;101030.78;;;6.98;70.24
37832;BME280;23671;38.090;-122.570;2023-01-29T11:37:15;101027.22;;;6.99;69.92
37832;BME280;23671;38.090;-122.570;2023-01-29T11:39:50;101025.44;;;6.99;69.72
37832;BME280;23671;38.090;-122.570;2023-01-29T11:42:26;101025.25;;;7.02;69.72
37832;BME280;23671;38.090;-122.570;2023-01-29T11:45:32;101018.69;;;6.95;69.89
37832;BME280;23671;38.090;-122.570;2023-01-29T11:48:16;101022.22;;;6.94;70.06
37832;BME280;23671;38.090;-122.570;2023-01-29T11:50:49;101025.59;;;6.96;70.04
37832;BME280;23671;38.090;-122.570;2023-01-29T11:53:39;101031.69;;;6.97;69.84
37832;BME280;23671;38.090;-122.570;2023-01-29T11:56:15;101024.84;;;6.94;69.88
37832;BME280;23671;38.090;-122.570;2023-01-29T11:59:40;101030.19;;;6.93;69.80
37832;BME280;23671;38.090;-122.570;2023-01-29T12:04:46;101025.13;;;6.90;70.06
37832;BME280;23671;38.090;-122.570;2023-01-29T12:07:16;101017.38;;;6.88;69.80
37832;BME280;23671;38.090;-122.570;2023-01-29T12:13:27;100999.81;;;6.89;69.96
37832;BME280;23671;38.090;-122.570;2023-01-29T12:36:00;100978.16;;;6.85;69.80
37832;BME280;23671;38.090;-122.570;2023-01-29T12:38:26;100986.97;;;6.84;69.69
37832;BME280;23671;38.090;-122.570;2023-01-29T12:41:42;100986.13;;;6.84;69.70
37832;BME280;23671;38.090;-122.570;2023-01-29T12:47:16;100968.78;;;6.81;69.50
37832;BME280;23671;38.090;-122.570;2023-01-29T12:49:51;100973.16;;;6.81;69.52
37832;BME280;23671;38.090;-122.570;2023-01-29T12:52:50;100974.88;;;6.82;69.58
37832;BME280;23671;38.090;-122.570;2023-01-29T12:58:59;100969.72;;;6.80;69.42
37832;BME280;23671;38.090;-122.570;2023-01-29T13:08:51;100969.13;;;6.75;69.62
37832;BME280;23671;38.090;-122.570;2023-01-29T13:11:34;100961.19;;;6.77;69.23
37832;BME280;23671;38.090;-122.570;2023-01-29T13:14:21;100958.66;;;6.75;69.54
37832;BME280;23671;38.090;-122.570;2023-01-29T13:17:47;100964.75;;;6.76;69.61
37832;BME280;23671;38.090;-122.570;2023-01-29T13:27:33;100956.31;;;6.71;69.72
37832;BME280;23671;38.090;-122.570;2023-01-29T13:29:55;100957.06;;;6.73;69.71
37832;BME280;23671;38.090;-122.570;2023-01-29T13:32:49;100951.97;;;6.70;69.60
37832;BME280;23671;38.090;-122.570;2023-01-29T13:36:15;100948.44;;;6.71;69.58
37832;BME280;23671;38.090;-122.570;2023-01-29T13:41:59;100923.31;;;6.67;69.69
37832;BME280;23671;38.090;-122.570;2023-01-29T13:47:25;100917.22;;;6.66;69.61
37832;BME280;23671;38.090;-122.570;2023-01-29T13:53:04;100937.34;;;6.66;69.50
37832;BME280;23671;38.090;-122.570;2023-01-29T13:55:35;100933.06;;;6.65;69.56
37832;BME280;23671;38.090;-122.570;2023-01-29T13:58:16;100924.53;;;6.61;69.40
37832;BME280;23671;38.090;-122.570;2023-01-29T14:00:59;100927.22;;;6.60;69.53
37832;BME280;23671;38.090;-122.570;2023-01-29T14:04:02;100927.53;;;6.55;69.45
37832;BME280;23671;38.090;-122.570;2023-01-29T14:06:51;100931.72;;;6.58;69.40
37832;BME280;23671;38.090;-122.570;2023-01-29T14:10:12;100929.09;;;6.58;69.40
37832;BME280;23671;38.090;-122.570;2023-01-29T14:12:41;100924.78;;;6.57;69.25
37832;BME280;23671;38.090;-122.570;2023-01-29T14:15:26;100933.69;;;6.54;69.43
37832;BME280;23671;38.090;-122.570;2023-01-29T14:23:29;100925.91;;;6.53;69.21
37832;BME280;23671;38.090;-122.570;2023-01-29T14:26:17;100929.53;;;6.50;69.30
37832;BME280;23671;38.090;-122.570;2023-01-29T14:32:31;100924.66;;;6.44;69.46
37832;BME280;23671;38.090;-122.570;2023-01-29T14:35:33;100934.44;;;6.42;69.34
37832;BME280;23671;38.090;-122.570;2023-01-29T14:38:11;100931.81;;;6.42;69.40
37832;BME280;23671;38.090;-122.570;2023-01-29T14:40:44;100936.09;;;6.43;69.26
37832;BME280;23671;38.090;-122.570;2023-01-29T14:43:30;100937.47;;;6.34;69.13
37832;BME280;23671;38.090;-122.570;2023-01-29T14:49:08;100940.28;;;6.31;69.55
37832;BME280;23671;38.090;-122.570;2023-01-29T14:51:48;100941.94;;;6.32;69.46
37832;BME280;23671;38.090;-122.570;2023-01-29T14:54:36;100946.38;;;6.32;69.34
37832;BME280;23671;38.090;-122.570;2023-01-29T14:57:17;100947.56;;;6.26;69.62
37832;BME280;23671;38.090;-122.570;2023-01-29T15:00:05;100947.66;;;6.25;69.43
37832;BME280;23671;38.090;-122.570;2023-01-29T15:02:50;100946.97;;;6.21;69.59
37832;BME280;23671;38.090;-122.570;2023-01-29T15:05:23;100947.31;;;6.15;69.66
37832;BME280;23671;38.090;-122.570;2023-01-29T15:07:57;100948.19;;;6.16;69.67
37832;BME280;23671;38.090;-122.570;2023-01-29T15:10:47;100943.03;;;6.14;69.56
37832;BME280;23671;38.090;-122.570;2023-01-29T15:16:59;100941.50;;;6.10;69.59
37832;BME280;23671;38.090;-122.570;2023-01-29T15:19:50;100945.91;;;6.10;69.53
37832;BME280;23671;38.090;-122.570;2023-01-29T15:22:25;100942.44;;;6.09;69.45
37832;BME280;23671;38.090;-122.570;2023-01-29T15:25:05;100939.91;;;6.08;69.27
37832;BME280;23671;38.090;-122.570;2023-01-29T15:27:33;100940.75;;;6.08;69.18
37832;BME280;23671;38.090;-122.570;2023-01-29T15:30:19;100941.75;;;6.06;69.14
37832;BME280;23671;38.090;-122.570;2023-01-29T15:32:56;100947.28;;;6.01;69.29
37832;BME280;23671;38.090;-122.570;2023-01-29T15:35:46;100944.47;;;6.04;69.24
37832;BME280;23671;38.090;-122.570;2023-01-29T15:38:24;100943.63;;;6.04;69.01
37832;BME280;23671;38.090;-122.570;2023-01-29T15:41:20;100946.34;;;6.02;69.12
37832;BME280;23671;38.090;-122.570;2023-01-29T15:44:00;100951.59;;;6.02;69.34
37832;BME280;23671;38.090;-122.570;2023-01-29T15:46:59;100948.19;;;6.00;68.94
37832;BME280;23671;38.090;-122.570;2023-01-29T15:49:38;100948.19;;;6.00;69.04
37832;BME280;23671;38.090;-122.570;2023-01-29T15:52:26;100953.44;;;6.00;69.23
37832;BME280;23671;38.090;-122.570;2023-01-29T15:55:02;100951.84;;;5.98;69.21
37832;BME280;23671;38.090;-122.570;2023-01-29T15:57:45;100948.41;;;5.97;69.23
37832;BME280;23671;38.090;-122.570;2023-01-29T16:00:29;100938.81;;;5.96;69.25
37832;BME280;23671;38.090;-122.570;2023-01-29T16:03:31;100941.44;;;5.96;69.10
37832;BME280;23671;38.090;-122.570;2023-01-29T16:05:59;100933.50;;;5.98;69.13
37832;BME280;23671;38.090;-122.570;2023-01-29T16:08:27;100941.34;;;5.98;69.01